sensor_id;sensor_type;location;lat;lon;timestamp;P1;durP1;ratioP1;P2;durP2;ratioP2
59922;SDS011;45778;51.142;3.732;2023-04-25T00:01:13;14.43;;;4.03;;
59922;SDS011;45778;51.142;3.732;2023-04-25T00:03:38;16.83;;;4.38;;
59922;SDS011;45778;51.142;3.732;2023-04-25T00:06:05;17.80;;;3.92;;
59922;SDS011;45778;51.142;3.732;2023-04-25T00:08:31;16.42;;;4.15;;
59922;SDS011;45778;51.142;3.732;2023-04-25T00:10:58;12.98;;;3.83;;
59922;SDS011;45778;51.142;3.732;2023-04-25T00:13:24;17.00;;;4.18;;
59922;SDS011;45778;51.142;3.732;2023-04-25T00:15:50;13.98;;;4.28;;
59922;SDS011;45778;51.142;3.732;2023-04-25T00:18:18;13.70;;;4.57;;
59922;SDS011;45778;51.142;3.732;2023-04-25T00:20:44;14.70;;;3.60;;
59922;SDS011;45778;51.142;3.732;2023-04-25T00:23:12;20.38;;;5.28;;
59922;SDS011;45778;51.142;3.732;2023-04-25T00:25:46;11.60;;;3.63;;
59922;SDS011;45778;51.142;3.732;2023-04-25T00:28:12;14.77;;;3.55;;
59922;SDS011;45778;51.142;3.732;2023-04-25T00:30:39;14.48;;;4.50;;
59922;SDS011;45778;51.142;3.732;2023-04-25T00:33:05;12.40;;;3.97;;
59922;SDS011;45778;51.142;3.732;2023-04-25T00:35:31;18.15;;;4.07;;
59922;SDS011;45778;51.142;3.732;2023-04-25T00:37:57;15.27;;;3.33;;
59922;SDS011;45778;51.142;3.732;2023-04-25T00:40:22;14.02;;;4.78;;
59922;SDS011;45778;51.142;3.732;2023-04-25T00:42:48;14.60;;;3.33;;
59922;SDS011;45778;51.142;3.732;2023-04-25T00:45:16;13.07;;;3.80;;
59922;SDS011;45778;51.142;3.732;2023-04-25T00:47:42;10.98;;;3.40;;
59922;SDS011;45778;51.142;3.732;2023-04-25T00:50:10;11.60;;;3.58;;
59922;SDS011;45778;51.142;3.732;2023-04-25T00:52:40;13.18;;;4.05;;
59922;SDS011;45778;51.142;3.732;2023-04-25T00:55:08;17.65;;;3.67;;
59922;SDS011;45778;51.142;3.732;2023-04-25T00:57:35;13.43;;;3.38;;
59922;SDS011;45778;51.142;3.732;2023-04-25T01:00:00;17.65;;;5.88;;
59922;SDS011;45778;51.142;3.732;2023-04-25T01:02:27;18.20;;;3.42;;
59922;SDS011;45778;51.142;3.732;2023-04-25T01:04:54;10.35;;;3.67;;
59922;SDS011;45778;51.142;3.732;2023-04-25T01:07:19;12.57;;;3.67;;
59922;SDS011;45778;51.142;3.732;2023-04-25T01:09:45;15.25;;;5.22;;
59922;SDS011;45778;51.142;3.732;2023-04-25T01:12:12;18.98;;;4.47;;
59922;SDS011;45778;51.142;3.732;2023-04-25T01:14:39;18.98;;;4.22;;
59922;SDS011;45778;51.142;3.732;2023-04-25T01:17:05;20.35;;;3.75;;
59922;SDS011;45778;51.142;3.732;2023-04-25T01:19:32;14.40;;;3.45;;
59922;SDS011;45778;51.142;3.732;2023-04-25T01:21:58;11.50;;;3.33;;
59922;SDS011;45778;51.142;3.732;2023-04-25T01:24:24;14.90;;;3.75;;
59922;SDS011;45778;51.142;3.732;2023-04-25T01:26:50;17.60;;;3.15;;
59922;SDS011;45778;51.142;3.732;2023-04-25T01:29:19;15.20;;;3.42;;
59922;SDS011;45778;51.142;3.732;2023-04-25T01:31:45;15.27;;;3.33;;
59922;SDS011;45778;51.142;3.732;2023-04-25T01:34:12;17.95;;;4.25;;
59922;SDS011;45778;51.142;3.732;2023-04-25T01:36:38;12.43;;;3.35;;
59922;SDS011;45778;51.142;3.732;2023-04-25T01:39:05;16.58;;;3.72;;
59922;SDS011;45778;51.142;3.732;2023-04-25T01:41:31;21.05;;;3.92;;
59922;SDS011;45778;51.142;3.732;2023-04-25T01:43:57;16.77;;;4.78;;
59922;SDS011;45778;51.142;3.732;2023-04-25T01:46:23;21.05;;;5.05;;
59922;SDS011;45778;51.142;3.732;2023-04-25T01:48:49;17.75;;;3.70;;
59922;SDS011;45778;51.142;3.732;2023-04-25T01:51:15;21.42;;;3.90;;
59922;SDS011;45778;51.142;3.732;2023-04-25T01:53:41;15.55;;;3.22;;
59922;SDS011;45778;51.142;3.732;2023-04-25T01:56:07;19.08;;;3.90;;
59922;SDS011;45778;51.142;3.732;2023-04-25T01:58:33;18.23;;;3.33;;
59922;SDS011;45778;51.142;3.732;2023-04-25T02:00:59;14.20;;;3.65;;
59922;SDS011;45778;51.142;3.732;2023-04-25T02:03:25;21.23;;;4.13;;
59922;SDS011;45778;51.142;3.732;2023-04-25T02:05:51;18.92;;;3.35;;
59922;SDS011;45778;51.142;3.732;2023-04-25T02:08:17;18.45;;;4.22;;
59922;SDS011;45778;51.142;3.732;2023-04-25T02:10:43;18.25;;;3.53;;
59922;SDS011;45778;51.142;3.732;2023-04-25T02:13:09;17.75;;;3.90;;
59922;SDS011;45778;51.142;3.732;2023-04-25T02:15:35;17.73;;;3.70;;
59922;SDS011;45778;51.142;3.732;2023-04-25T02:18:01;20.10;;;4.45;;
59922;SDS011;45778;51.142;3.732;2023-04-25T02:20:27;21.20;;;5.60;;
59922;SDS011;45778;51.142;3.732;2023-04-25T02:22:54;26.73;;;4.38;;
59922;SDS011;45778;51.142;3.732;2023-04-25T02:25:20;13.98;;;3.83;;
59922;SDS011;45778;51.142;3.732;2023-04-25T02:27:46;17.63;;;3.63;;
59922;SDS011;45778;51.142;3.732;2023-04-25T02:30:13;18.70;;;4.85;;
59922;SDS011;45778;51.142;3.732;2023-04-25T02:32:39;22.20;;;3.92;;
59922;SDS011;45778;51.142;3.732;2023-04-25T02:35:06;14.68;;;3.67;;
59922;SDS011;45778;51.142;3.732;2023-04-25T02:37:32;14.20;;;4.32;;
59922;SDS011;45778;51.142;3.732;2023-04-25T02:39:59;18.95;;;4.45;;
59922;SDS011;45778;51.142;3.732;2023-04-25T02:42:26;12.82;;;3.60;;
59922;SDS011;45778;51.142;3.732;2023-04-25T02:44:52;16.75;;;4.00;;
59922;SDS011;45778;51.142;3.732;2023-04-25T02:47:18;12.60;;;3.50;;
59922;SDS011;45778;51.142;3.732;2023-04-25T02:49:43;12.73;;;4.05;;
59922;SDS011;45778;51.142;3.732;2023-04-25T02:52:11;18.98;;;3.72;;
59922;SDS011;45778;51.142;3.732;2023-04-25T02:54:37;12.18;;;3.30;;
59922;SDS011;45778;51.142;3.732;2023-04-25T02:57:03;12.35;;;3.13;;
59922;SDS011;45778;51.142;3.732;2023-04-25T02:59:29;14.73;;;3.47;;
59922;SDS011;45778;51.142;3.732;2023-04-25T03:01:55;15.75;;;3.85;;
59922;SDS011;45778;51.142;3.732;2023-04-25T03:04:20;15.30;;;3.53;;
59922;SDS011;45778;51.142;3.732;2023-04-25T03:06:48;10.88;;;2.85;;
59922;SDS011;45778;51.142;3.732;2023-04-25T03:09:14;7.40;;;2.20;;
59922;SDS011;45778;51.142;3.732;2023-04-25T03:11:40;10.30;;;2.80;;
59922;SDS011;45778;51.142;3.732;2023-04-25T03:14:06;8.40;;;2.58;;
59922;SDS011;45778;51.142;3.732;2023-04-25T03:16:32;12.48;;;2.50;;
59922;SDS011;45778;51.142;3.732;2023-04-25T03:18:58;9.05;;;2.42;;
59922;SDS011;45778;51.142;3.732;2023-04-25T03:21:24;8.93;;;2.40;;
59922;SDS011;45778;51.142;3.732;2023-04-25T03:23:50;15.43;;;2.20;;
59922;SDS011;45778;51.142;3.732;2023-04-25T03:26:15;11.43;;;2.33;;
59922;SDS011;45778;51.142;3.732;2023-04-25T03:28:41;11.90;;;2.95;;
59922;SDS011;45778;51.142;3.732;2023-04-25T03:31:07;10.88;;;2.63;;
59922;SDS011;45778;51.142;3.732;2023-04-25T03:33:32;7.63;;;2.70;;
59922;SDS011;45778;51.142;3.732;2023-04-25T03:35:58;10.40;;;3.28;;
59922;SDS011;45778;51.142;3.732;2023-04-25T03:38:24;13.18;;;2.75;;
59922;SDS011;45778;51.142;3.732;2023-04-25T03:40:50;9.13;;;2.67;;
59922;SDS011;45778;51.142;3.732;2023-04-25T03:43:16;11.63;;;2.83;;
59922;SDS011;45778;51.142;3.732;2023-04-25T03:45:42;11.15;;;2.90;;
59922;SDS011;45778;51.142;3.732;2023-04-25T03:48:08;9.70;;;3.03;;
59922;SDS011;45778;51.142;3.732;2023-04-25T03:50:33;8.60;;;3.05;;
59922;SDS011;45778;51.142;3.732;2023-04-25T03:52:59;6.68;;;1.95;;
59922;SDS011;45778;51.142;3.732;2023-04-25T03:55:25;7.95;;;2.83;;
59922;SDS011;45778;51.142;3.732;2023-04-25T03:57:50;12.40;;;3.05;;
59922;SDS011;45778;51.142;3.732;2023-04-25T04:00:16;10.10;;;2.42;;
59922;SDS011;45778;51.142;3.732;2023-04-25T04:02:42;10.07;;;2.42;;
59922;SDS011;45778;51.142;3.732;2023-04-25T04:05:07;8.40;;;1.95;;
59922;SDS011;45778;51.142;3.732;2023-04-25T04:07:34;14.40;;;2.20;;
59922;SDS011;45778;51.142;3.732;2023-04-25T04:10:04;5.97;;;3.25;;
59922;SDS011;45778;51.142;3.732;2023-04-25T04:12:31;12.25;;;3.00;;
59922;SDS011;45778;51.142;3.732;2023-04-25T04:14:57;13.32;;;2.75;;
59922;SDS011;45778;51.142;3.732;2023-04-25T04:17:22;15.40;;;3.75;;
59922;SDS011;45778;51.142;3.732;2023-04-25T04:19:48;10.13;;;2.78;;
59922;SDS011;45778;51.142;3.732;2023-04-25T04:22:14;10.95;;;2.88;;
59922;SDS011;45778;51.142;3.732;2023-04-25T04:24:40;13.93;;;2.85;;
59922;SDS011;45778;51.142;3.732;2023-04-25T04:27:08;12.50;;;3.50;;
59922;SDS011;45778;51.142;3.732;2023-04-25T04:29:34;7.13;;;2.40;;
59922;SDS011;45778;51.142;3.732;2023-04-25T04:32:01;9.23;;;3.22;;
59922;SDS011;45778;51.142;3.732;2023-04-25T04:34:28;12.82;;;3.30;;
59922;SDS011;45778;51.142;3.732;2023-04-25T04:36:54;14.32;;;3.58;;
59922;SDS011;45778;51.142;3.732;2023-04-25T04:39:20;15.43;;;3.33;;
59922;SDS011;45778;51.142;3.732;2023-04-25T04:41:46;11.38;;;3.83;;
59922;SDS011;45778;51.142;3.732;2023-04-25T04:44:11;15.82;;;3.40;;
59922;SDS011;45778;51.142;3.732;2023-04-25T04:46:38;13.65;;;3.42;;
59922;SDS011;45778;51.142;3.732;2023-04-25T04:49:05;10.10;;;2.70;;
59922;SDS011;45778;51.142;3.732;2023-04-25T04:51:31;11.68;;;3.42;;
59922;SDS011;45778;51.142;3.732;2023-04-25T04:53:57;13.15;;;3.30;;
59922;SDS011;45778;51.142;3.732;2023-04-25T04:56:27;11.70;;;3.30;;
59922;SDS011;45778;51.142;3.732;2023-04-25T04:58:58;11.55;;;3.03;;
59922;SDS011;45778;51.142;3.732;2023-04-25T05:01:25;18.73;;;5.57;;
59922;SDS011;45778;51.142;3.732;2023-04-25T05:03:51;11.30;;;2.80;;
59922;SDS011;45778;51.142;3.732;2023-04-25T05:06:18;10.23;;;2.65;;
59922;SDS011;45778;51.142;3.732;2023-04-25T05:08:44;13.07;;;3.28;;
59922;SDS011;45778;51.142;3.732;2023-04-25T05:11:10;16.55;;;3.15;;
59922;SDS011;45778;51.142;3.732;2023-04-25T05:13:36;11.50;;;3.38;;
59922;SDS011;45778;51.142;3.732;2023-04-25T05:16:02;19.10;;;3.05;;
59922;SDS011;45778;51.142;3.732;2023-04-25T05:18:27;11.27;;;3.58;;
59922;SDS011;45778;51.142;3.732;2023-04-25T05:20:53;12.85;;;3.08;;
59922;SDS011;45778;51.142;3.732;2023-04-25T05:23:19;10.40;;;3.13;;
59922;SDS011;45778;51.142;3.732;2023-04-25T05:25:44;11.55;;;3.22;;
59922;SDS011;45778;51.142;3.732;2023-04-25T05:28:12;12.60;;;3.53;;
59922;SDS011;45778;51.142;3.732;2023-04-25T05:30:37;12.20;;;3.17;;
59922;SDS011;45778;51.142;3.732;2023-04-25T05:33:03;9.77;;;2.90;;
59922;SDS011;45778;51.142;3.732;2023-04-25T05:35:29;13.07;;;4.68;;
59922;SDS011;45778;51.142;3.732;2023-04-25T05:37:55;10.32;;;2.70;;
59922;SDS011;45778;51.142;3.732;2023-04-25T05:40:20;10.73;;;3.25;;
59922;SDS011;45778;51.142;3.732;2023-04-25T05:42:46;10.57;;;2.35;;
59922;SDS011;45778;51.142;3.732;2023-04-25T05:45:12;11.77;;;2.88;;
59922;SDS011;45778;51.142;3.732;2023-04-25T05:47:38;10.52;;;2.75;;
59922;SDS011;45778;51.142;3.732;2023-04-25T05:50:03;14.85;;;3.65;;
59922;SDS011;45778;51.142;3.732;2023-04-25T05:52:30;8.52;;;2.75;;
59922;SDS011;45778;51.142;3.732;2023-04-25T05:54:55;10.38;;;3.03;;
59922;SDS011;45778;51.142;3.732;2023-04-25T05:57:24;11.10;;;2.53;;
59922;SDS011;45778;51.142;3.732;2023-04-25T05:59:50;9.07;;;1.80;;
59922;SDS011;45778;51.142;3.732;2023-04-25T06:02:17;9.82;;;2.00;;
59922;SDS011;45778;51.142;3.732;2023-04-25T06:04:46;10.02;;;2.22;;
59922;SDS011;45778;51.142;3.732;2023-04-25T06:07:14;9.20;;;2.15;;
59922;SDS011;45778;51.142;3.732;2023-04-25T06:09:40;12.63;;;1.77;;
59922;SDS011;45778;51.142;3.732;2023-04-25T06:12:06;8.32;;;1.70;;
59922;SDS011;45778;51.142;3.732;2023-04-25T06:14:32;9.13;;;1.60;;
59922;SDS011;45778;51.142;3.732;2023-04-25T06:16:58;9.90;;;1.73;;
59922;SDS011;45778;51.142;3.732;2023-04-25T06:19:24;8.57;;;2.38;;
59922;SDS011;45778;51.142;3.732;2023-04-25T06:21:50;9.95;;;1.92;;
59922;SDS011;45778;51.142;3.732;2023-04-25T06:24:15;8.90;;;2.00;;
59922;SDS011;45778;51.142;3.732;2023-04-25T06:26:41;7.40;;;1.60;;
59922;SDS011;45778;51.142;3.732;2023-04-25T06:29:07;10.98;;;1.88;;
59922;SDS011;45778;51.142;3.732;2023-04-25T06:31:33;6.53;;;1.30;;
59922;SDS011;45778;51.142;3.732;2023-04-25T06:33:58;12.60;;;1.90;;
59922;SDS011;45778;51.142;3.732;2023-04-25T06:36:24;6.65;;;1.20;;
59922;SDS011;45778;51.142;3.732;2023-04-25T06:38:51;8.23;;;1.90;;
59922;SDS011;45778;51.142;3.732;2023-04-25T06:41:20;5.78;;;1.23;;
59922;SDS011;45778;51.142;3.732;2023-04-25T06:43:45;9.48;;;1.70;;
59922;SDS011;45778;51.142;3.732;2023-04-25T06:46:11;7.43;;;1.40;;
59922;SDS011;45778;51.142;3.732;2023-04-25T06:48:37;2.88;;;1.05;;
59922;SDS011;45778;51.142;3.732;2023-04-25T06:51:03;12.30;;;2.05;;
59922;SDS011;45778;51.142;3.732;2023-04-25T06:53:29;9.60;;;2.70;;
59922;SDS011;45778;51.142;3.732;2023-04-25T06:55:55;7.53;;;1.58;;
59922;SDS011;45778;51.142;3.732;2023-04-25T06:58:20;9.93;;;2.55;;
59922;SDS011;45778;51.142;3.732;2023-04-25T07:00:46;7.20;;;1.98;;
59922;SDS011;45778;51.142;3.732;2023-04-25T07:03:11;6.47;;;1.58;;
59922;SDS011;45778;51.142;3.732;2023-04-25T07:05:37;10.52;;;1.50;;
59922;SDS011;45778;51.142;3.732;2023-04-25T07:08:03;7.53;;;1.42;;
59922;SDS011;45778;51.142;3.732;2023-04-25T07:10:29;6.32;;;1.50;;
59922;SDS011;45778;51.142;3.732;2023-04-25T07:12:54;9.40;;;1.42;;
59922;SDS011;45778;51.142;3.732;2023-04-25T07:15:20;6.50;;;1.52;;
59922;SDS011;45778;51.142;3.732;2023-04-25T07:17:46;6.85;;;1.27;;
59922;SDS011;45778;51.142;3.732;2023-04-25T07:20:11;6.32;;;1.05;;
59922;SDS011;45778;51.142;3.732;2023-04-25T07:22:37;4.88;;;1.08;;
59922;SDS011;45778;51.142;3.732;2023-04-25T07:25:03;6.60;;;0.88;;
59922;SDS011;45778;51.142;3.732;2023-04-25T07:27:29;6.38;;;1.30;;
59922;SDS011;45778;51.142;3.732;2023-04-25T07:29:55;6.20;;;1.00;;
59922;SDS011;45778;51.142;3.732;2023-04-25T07:32:21;5.22;;;1.20;;
59922;SDS011;45778;51.142;3.732;2023-04-25T07:34:46;12.30;;;1.98;;
59922;SDS011;45778;51.142;3.732;2023-04-25T07:37:12;7.45;;;1.20;;
59922;SDS011;45778;51.142;3.732;2023-04-25T07:39:39;3.28;;;0.77;;
59922;SDS011;45778;51.142;3.732;2023-04-25T07:42:05;8.18;;;1.30;;
59922;SDS011;45778;51.142;3.732;2023-04-25T07:44:33;4.78;;;1.15;;
59922;SDS011;45778;51.142;3.732;2023-04-25T07:47:03;6.45;;;1.55;;
59922;SDS011;45778;51.142;3.732;2023-04-25T07:49:31;7.25;;;1.65;;
59922;SDS011;45778;51.142;3.732;2023-04-25T07:51:58;4.78;;;1.15;;
59922;SDS011;45778;51.142;3.732;2023-04-25T07:54:24;5.25;;;1.23;;
59922;SDS011;45778;51.142;3.732;2023-04-25T07:56:50;4.57;;;1.13;;
59922;SDS011;45778;51.142;3.732;2023-04-25T07:59:16;5.75;;;1.00;;
59922;SDS011;45778;51.142;3.732;2023-04-25T08:01:41;5.07;;;0.90;;
59922;SDS011;45778;51.142;3.732;2023-04-25T08:04:07;4.97;;;1.20;;
59922;SDS011;45778;51.142;3.732;2023-04-25T08:06:32;2.72;;;0.47;;
59922;SDS011;45778;51.142;3.732;2023-04-25T08:08:58;5.07;;;0.85;;
59922;SDS011;45778;51.142;3.732;2023-04-25T08:11:24;5.28;;;0.85;;
59922;SDS011;45778;51.142;3.732;2023-04-25T08:13:50;3.92;;;0.98;;
59922;SDS011;45778;51.142;3.732;2023-04-25T08:16:15;5.13;;;0.70;;
59922;SDS011;45778;51.142;3.732;2023-04-25T08:18:41;4.40;;;0.98;;
59922;SDS011;45778;51.142;3.732;2023-04-25T08:21:07;6.32;;;1.25;;
59922;SDS011;45778;51.142;3.732;2023-04-25T08:23:36;11.43;;;2.08;;
59922;SDS011;45778;51.142;3.732;2023-04-25T08:26:02;6.00;;;0.98;;
59922;SDS011;45778;51.142;3.732;2023-04-25T08:28:28;2.88;;;0.68;;
59922;SDS011;45778;51.142;3.732;2023-04-25T08:30:53;6.07;;;0.98;;
59922;SDS011;45778;51.142;3.732;2023-04-25T08:33:19;5.50;;;1.67;;
59922;SDS011;45778;51.142;3.732;2023-04-25T08:35:45;4.88;;;0.80;;
59922;SDS011;45778;51.142;3.732;2023-04-25T08:38:11;8.50;;;1.33;;
59922;SDS011;45778;51.142;3.732;2023-04-25T08:40:38;6.50;;;1.02;;
59922;SDS011;45778;51.142;3.732;2023-04-25T08:43:05;6.82;;;1.10;;
59922;SDS011;45778;51.142;3.732;2023-04-25T08:45:36;3.63;;;0.80;;
59922;SDS011;45778;51.142;3.732;2023-04-25T08:48:05;4.60;;;1.33;;
59922;SDS011;45778;51.142;3.732;2023-04-25T08:50:36;4.43;;;0.80;;
59922;SDS011;45778;51.142;3.732;2023-04-25T08:53:05;5.13;;;0.85;;
59922;SDS011;45778;51.142;3.732;2023-04-25T08:55:35;6.53;;;1.20;;
59922;SDS011;45778;51.142;3.732;2023-04-25T08:58:05;4.78;;;0.90;;
59922;SDS011;45778;51.142;3.732;2023-04-25T09:00:31;4.95;;;0.80;;
59922;SDS011;45778;51.142;3.732;2023-04-25T09:02:57;4.53;;;1.05;;
59922;SDS011;45778;51.142;3.732;2023-04-25T09:05:24;6.75;;;1.00;;
59922;SDS011;45778;51.142;3.732;2023-04-25T09:07:50;5.95;;;1.08;;
59922;SDS011;45778;51.142;3.732;2023-04-25T09:10:16;4.18;;;1.73;;
59922;SDS011;45778;51.142;3.732;2023-04-25T09:12:41;6.85;;;1.02;;
59922;SDS011;45778;51.142;3.732;2023-04-25T09:15:10;1.60;;;0.75;;
59922;SDS011;45778;51.142;3.732;2023-04-25T09:17:38;2.55;;;0.73;;
59922;SDS011;45778;51.142;3.732;2023-04-25T09:20:09;5.35;;;1.05;;
59922;SDS011;45778;51.142;3.732;2023-04-25T09:22:37;6.32;;;0.90;;
59922;SDS011;45778;51.142;3.732;2023-04-25T09:25:12;6.07;;;1.00;;
59922;SDS011;45778;51.142;3.732;2023-04-25T09:27:50;3.78;;;0.70;;
59922;SDS011;45778;51.142;3.732;2023-04-25T09:30:17;5.13;;;0.82;;
59922;SDS011;45778;51.142;3.732;2023-04-25T09:32:43;5.13;;;0.50;;
59922;SDS011;45778;51.142;3.732;2023-04-25T09:35:09;2.83;;;0.68;;
59922;SDS011;45778;51.142;3.732;2023-04-25T09:37:36;2.63;;;0.75;;
59922;SDS011;45778;51.142;3.732;2023-04-25T09:40:05;3.13;;;0.70;;
59922;SDS011;45778;51.142;3.732;2023-04-25T09:42:32;5.05;;;1.00;;
59922;SDS011;45778;51.142;3.732;2023-04-25T09:44:59;2.63;;;0.57;;
59922;SDS011;45778;51.142;3.732;2023-04-25T09:47:29;2.88;;;0.55;;
59922;SDS011;45778;51.142;3.732;2023-04-25T09:49:54;3.85;;;0.98;;
59922;SDS011;45778;51.142;3.732;2023-04-25T09:52:21;5.40;;;0.88;;
59922;SDS011;45778;51.142;3.732;2023-04-25T09:54:48;4.95;;;1.00;;
59922;SDS011;45778;51.142;3.732;2023-04-25T09:57:15;4.68;;;0.70;;
59922;SDS011;45778;51.142;3.732;2023-04-25T09:59:45;3.22;;;0.63;;
59922;SDS011;45778;51.142;3.732;2023-04-25T10:02:18;6.68;;;1.02;;
59922;SDS011;45778;51.142;3.732;2023-04-25T10:04:49;7.57;;;0.90;;
59922;SDS011;45778;51.142;3.732;2023-04-25T10:07:19;3.58;;;0.65;;
59922;SDS011;45778;51.142;3.732;2023-04-25T10:10:02;8.05;;;1.00;;
59922;SDS011;45778;51.142;3.732;2023-04-25T10:12:30;2.45;;;0.95;;
59922;SDS011;45778;51.142;3.732;2023-04-25T10:14:56;3.80;;;0.90;;
59922;SDS011;45778;51.142;3.732;2023-04-25T10:17:23;4.25;;;0.80;;
59922;SDS011;45778;51.142;3.732;2023-04-25T10:19:49;5.72;;;1.30;;
59922;SDS011;45778;51.142;3.732;2023-04-25T10:22:35;6.88;;;1.02;;
59922;SDS011;45778;51.142;3.732;2023-04-25T10:25:06;3.90;;;0.68;;
59922;SDS011;45778;51.142;3.732;2023-04-25T10:27:33;3.58;;;0.60;;
59922;SDS011;45778;51.142;3.732;2023-04-25T10:30:18;4.10;;;0.85;;
59922;SDS011;45778;51.142;3.732;2023-04-25T10:32:44;5.32;;;1.80;;
59922;SDS011;45778;51.142;3.732;2023-04-25T10:35:17;6.20;;;1.10;;
59922;SDS011;45778;51.142;3.732;2023-04-25T10:37:57;6.40;;;1.02;;
59922;SDS011;45778;51.142;3.732;2023-04-25T10:40:23;6.72;;;0.95;;
59922;SDS011;45778;51.142;3.732;2023-04-25T10:42:49;4.43;;;0.90;;
59922;SDS011;45778;51.142;3.732;2023-04-25T10:45:18;3.67;;;1.30;;
59922;SDS011;45778;51.142;3.732;2023-04-25T10:47:44;5.45;;;0.65;;
59922;SDS011;45778;51.142;3.732;2023-04-25T10:50:10;4.00;;;0.80;;
59922;SDS011;45778;51.142;3.732;2023-04-25T10:52:38;3.50;;;0.60;;
59922;SDS011;45778;51.142;3.732;2023-04-25T10:55:05;5.15;;;1.40;;
59922;SDS011;45778;51.142;3.732;2023-04-25T10:57:41;3.70;;;0.60;;
59922;SDS011;45778;51.142;3.732;2023-04-25T11:02:45;5.47;;;0.82;;
59922;SDS011;45778;51.142;3.732;2023-04-25T11:05:20;4.18;;;1.10;;
59922;SDS011;45778;51.142;3.732;2023-04-25T11:07:58;4.30;;;1.17;;
59922;SDS011;45778;51.142;3.732;2023-04-25T11:10:28;4.03;;;0.47;;
59922;SDS011;45778;51.142;3.732;2023-04-25T11:12:55;4.45;;;0.82;;
59922;SDS011;45778;51.142;3.732;2023-04-25T11:15:21;2.75;;;0.63;;
59922;SDS011;45778;51.142;3.732;2023-04-25T11:17:47;2.00;;;1.17;;
59922;SDS011;45778;51.142;3.732;2023-04-25T11:20:13;4.53;;;0.70;;
59922;SDS011;45778;51.142;3.732;2023-04-25T11:22:40;2.15;;;0.50;;
59922;SDS011;45778;51.142;3.732;2023-04-25T11:25:10;6.25;;;1.00;;
59922;SDS011;45778;51.142;3.732;2023-04-25T11:27:38;5.00;;;0.93;;
59922;SDS011;45778;51.142;3.732;2023-04-25T11:30:22;2.95;;;0.63;;
59922;SDS011;45778;51.142;3.732;2023-04-25T11:32:49;4.45;;;0.50;;
59922;SDS011;45778;51.142;3.732;2023-04-25T11:35:15;4.32;;;1.17;;
59922;SDS011;45778;51.142;3.732;2023-04-25T11:37:41;6.22;;;0.52;;
59922;SDS011;45778;51.142;3.732;2023-04-25T11:40:09;6.30;;;0.60;;
59922;SDS011;45778;51.142;3.732;2023-04-25T11:42:36;3.53;;;0.63;;
59922;SDS011;45778;51.142;3.732;2023-04-25T11:45:03;4.00;;;0.60;;
59922;SDS011;45778;51.142;3.732;2023-04-25T11:47:33;4.80;;;1.15;;
59922;SDS011;45778;51.142;3.732;2023-04-25T11:49:59;2.47;;;0.50;;
59922;SDS011;45778;51.142;3.732;2023-04-25T11:55:05;2.92;;;0.80;;
59922;SDS011;45778;51.142;3.732;2023-04-25T11:57:42;7.13;;;0.80;;
59922;SDS011;45778;51.142;3.732;2023-04-25T12:02:36;4.47;;;1.08;;
59922;SDS011;45778;51.142;3.732;2023-04-25T12:05:02;7.97;;;0.88;;
59922;SDS011;45778;51.142;3.732;2023-04-25T12:07:33;7.60;;;1.60;;
59922;SDS011;45778;51.142;3.732;2023-04-25T12:09:59;6.30;;;0.70;;
59922;SDS011;45778;51.142;3.732;2023-04-25T12:12:34;6.40;;;1.02;;
59922;SDS011;45778;51.142;3.732;2023-04-25T12:17:48;5.13;;;0.80;;
59922;SDS011;45778;51.142;3.732;2023-04-25T12:20:16;6.75;;;0.80;;
59922;SDS011;45778;51.142;3.732;2023-04-25T12:22:45;3.88;;;0.55;;
59922;SDS011;45778;51.142;3.732;2023-04-25T12:25:33;8.48;;;1.10;;
59922;SDS011;45778;51.142;3.732;2023-04-25T12:28:10;2.40;;;0.75;;
59922;SDS011;45778;51.142;3.732;2023-04-25T12:33:40;3.05;;;0.77;;
59922;SDS011;45778;51.142;3.732;2023-04-25T12:36:07;8.18;;;2.70;;
59922;SDS011;45778;51.142;3.732;2023-04-25T12:38:37;6.35;;;0.75;;
59922;SDS011;45778;51.142;3.732;2023-04-25T12:41:05;4.57;;;0.70;;
59922;SDS011;45778;51.142;3.732;2023-04-25T12:43:31;10.52;;;1.52;;
59922;SDS011;45778;51.142;3.732;2023-04-25T12:45:56;3.50;;;0.57;;
59922;SDS011;45778;51.142;3.732;2023-04-25T12:48:22;5.00;;;0.98;;
59922;SDS011;45778;51.142;3.732;2023-04-25T12:50:49;7.35;;;0.95;;
59922;SDS011;45778;51.142;3.732;2023-04-25T12:53:17;3.17;;;0.70;;
59922;SDS011;45778;51.142;3.732;2023-04-25T12:55:43;2.78;;;0.82;;
59922;SDS011;45778;51.142;3.732;2023-04-25T12:58:15;4.03;;;0.70;;
59922;SDS011;45778;51.142;3.732;2023-04-25T13:00:42;7.85;;;0.98;;
59922;SDS011;45778;51.142;3.732;2023-04-25T13:03:08;6.10;;;1.02;;
59922;SDS011;45778;51.142;3.732;2023-04-25T13:05:35;2.75;;;0.80;;
59922;SDS011;45778;51.142;3.732;2023-04-25T13:08:01;5.60;;;1.17;;
59922;SDS011;45778;51.142;3.732;2023-04-25T13:10:27;7.50;;;1.08;;
59922;SDS011;45778;51.142;3.732;2023-04-25T13:12:53;5.18;;;0.77;;
59922;SDS011;45778;51.142;3.732;2023-04-25T13:15:19;6.45;;;0.88;;
59922;SDS011;45778;51.142;3.732;2023-04-25T13:17:45;6.70;;;0.73;;
59922;SDS011;45778;51.142;3.732;2023-04-25T13:20:11;7.60;;;1.02;;
59922;SDS011;45778;51.142;3.732;2023-04-25T13:22:39;4.05;;;0.77;;
59922;SDS011;45778;51.142;3.732;2023-04-25T13:25:05;4.80;;;0.68;;
59922;SDS011;45778;51.142;3.732;2023-04-25T13:27:32;6.07;;;0.85;;
59922;SDS011;45778;51.142;3.732;2023-04-25T13:30:02;2.80;;;0.80;;
59922;SDS011;45778;51.142;3.732;2023-04-25T13:35:02;3.00;;;0.65;;
59922;SDS011;45778;51.142;3.732;2023-04-25T13:37:28;5.13;;;0.70;;
59922;SDS011;45778;51.142;3.732;2023-04-25T13:39:55;7.80;;;0.88;;
59922;SDS011;45778;51.142;3.732;2023-04-25T13:42:21;4.22;;;0.90;;
59922;SDS011;45778;51.142;3.732;2023-04-25T13:44:48;4.93;;;0.80;;
59922;SDS011;45778;51.142;3.732;2023-04-25T13:47:13;4.13;;;1.00;;
59922;SDS011;45778;51.142;3.732;2023-04-25T13:49:39;6.18;;;1.10;;
59922;SDS011;45778;51.142;3.732;2023-04-25T13:52:05;3.42;;;0.60;;
59922;SDS011;45778;51.142;3.732;2023-04-25T13:54:31;2.85;;;0.60;;
59922;SDS011;45778;51.142;3.732;2023-04-25T13:56:56;5.45;;;0.85;;
59922;SDS011;45778;51.142;3.732;2023-04-25T13:59:24;3.05;;;0.70;;
59922;SDS011;45778;51.142;3.732;2023-04-25T14:01:50;4.90;;;0.68;;
59922;SDS011;45778;51.142;3.732;2023-04-25T14:04:19;1.92;;;0.40;;
59922;SDS011;45778;51.142;3.732;2023-04-25T14:06:45;3.28;;;0.70;;
59922;SDS011;45778;51.142;3.732;2023-04-25T14:09:10;4.68;;;0.88;;
59922;SDS011;45778;51.142;3.732;2023-04-25T14:11:38;3.90;;;0.63;;
59922;SDS011;45778;51.142;3.732;2023-04-25T14:14:04;3.95;;;1.05;;
59922;SDS011;45778;51.142;3.732;2023-04-25T14:16:30;4.45;;;1.05;;
59922;SDS011;45778;51.142;3.732;2023-04-25T14:18:58;5.40;;;0.88;;
59922;SDS011;45778;51.142;3.732;2023-04-25T14:21:25;4.38;;;0.82;;
59922;SDS011;45778;51.142;3.732;2023-04-25T14:23:51;4.72;;;0.82;;
59922;SDS011;45778;51.142;3.732;2023-04-25T14:26:17;4.22;;;0.80;;
59922;SDS011;45778;51.142;3.732;2023-04-25T14:28:43;3.47;;;0.75;;
59922;SDS011;45778;51.142;3.732;2023-04-25T14:31:09;2.70;;;0.70;;
59922;SDS011;45778;51.142;3.732;2023-04-25T14:33:35;2.90;;;0.73;;
59922;SDS011;45778;51.142;3.732;2023-04-25T14:36:02;7.38;;;2.80;;
59922;SDS011;45778;51.142;3.732;2023-04-25T14:38:28;6.50;;;3.13;;
59922;SDS011;45778;51.142;3.732;2023-04-25T14:40:53;3.58;;;1.20;;
59922;SDS011;45778;51.142;3.732;2023-04-25T14:43:19;3.55;;;1.00;;
59922;SDS011;45778;51.142;3.732;2023-04-25T14:45:45;2.95;;;0.75;;
59922;SDS011;45778;51.142;3.732;2023-04-25T14:48:11;3.50;;;0.60;;
59922;SDS011;45778;51.142;3.732;2023-04-25T14:50:37;2.58;;;0.70;;
59922;SDS011;45778;51.142;3.732;2023-04-25T14:53:02;3.90;;;0.50;;
59922;SDS011;45778;51.142;3.732;2023-04-25T14:55:28;4.28;;;0.90;;
59922;SDS011;45778;51.142;3.732;2023-04-25T14:57:54;5.55;;;0.70;;